sensor_id;sensor_type;location;lat;lon;timestamp;temperature;humidity
65046;DHT22;54657;52.022;5.534;2023-03-24T00:01:03;12.90;92.60
65046;DHT22;54657;52.022;5.534;2023-03-24T00:03:30;12.90;92.50
65046;DHT22;54657;52.022;5.534;2023-03-24T00:05:57;12.90;92.20
65046;DHT22;54657;52.022;5.534;2023-03-24T00:08:29;12.90;92.40
65046;DHT22;54657;52.022;5.534;2023-03-24T00:11:02;12.90;92.30
65046;DHT22;54657;52.022;5.534;2023-03-24T00:13:29;12.90;92.80
65046;DHT22;54657;52.022;5.534;2023-03-24T00:15:56;12.90;92.20
65046;DHT22;54657;52.022;5.534;2023-03-24T00:18:22;13.00;91.90
65046;DHT22;54657;52.022;5.534;2023-03-24T00:20:51;13.00;92.20
65046;DHT22;54657;52.022;5.534;2023-03-24T00:23:23;13.10;92.00
65046;DHT22;54657;52.022;5.534;2023-03-24T00:26:01;13.00;92.50
65046;DHT22;54657;52.022;5.534;2023-03-24T00:28:29;13.00;94.60
65046;DHT22;54657;52.022;5.534;2023-03-24T00:30:56;12.90;93.10
65046;DHT22;54657;52.022;5.534;2023-03-24T00:33:22;12.90;92.90
65046;DHT22;54657;52.022;5.534;2023-03-24T00:35:48;12.90;92.70
65046;DHT22;54657;52.022;5.534;2023-03-24T00:38:14;13.00;92.50
65046;DHT22;54657;52.022;5.534;2023-03-24T00:40:46;13.00;92.90
65046;DHT22;54657;52.022;5.534;2023-03-24T00:43:13;13.00;93.30
65046;DHT22;54657;52.022;5.534;2023-03-24T00:45:39;12.90;93.40
65046;DHT22;54657;52.022;5.534;2023-03-24T00:48:14;13.00;92.90
65046;DHT22;54657;52.022;5.534;2023-03-24T00:50:49;12.90;93.90
65046;DHT22;54657;52.022;5.534;2023-03-24T00:53:15;12.90;95.00
65046;DHT22;54657;52.022;5.534;2023-03-24T00:55:42;13.00;92.90
65046;DHT22;54657;52.022;5.534;2023-03-24T00:58:11;12.90;93.30
65046;DHT22;54657;52.022;5.534;2023-03-24T01:00:43;13.00;93.00
65046;DHT22;54657;52.022;5.534;2023-03-24T01:03:09;12.90;93.90
65046;DHT22;54657;52.022;5.534;2023-03-24T01:05:34;12.90;93.60
65046;DHT22;54657;52.022;5.534;2023-03-24T01:08:01;13.00;93.90
65046;DHT22;54657;52.022;5.534;2023-03-24T01:10:29;13.00;93.80
65046;DHT22;54657;52.022;5.534;2023-03-24T01:12:57;13.00;93.90
65046;DHT22;54657;52.022;5.534;2023-03-24T01:15:26;12.90;94.20
65046;DHT22;54657;52.022;5.534;2023-03-24T01:17:52;13.00;94.00
65046;DHT22;54657;52.022;5.534;2023-03-24T01:20:19;13.00;93.50
65046;DHT22;54657;52.022;5.534;2023-03-24T01:22:44;13.10;93.50
65046;DHT22;54657;52.022;5.534;2023-03-24T01:25:15;13.10;93.70
65046;DHT22;54657;52.022;5.534;2023-03-24T01:27:42;13.10;93.70
65046;DHT22;54657;52.022;5.534;2023-03-24T01:30:14;13.10;93.60
65046;DHT22;54657;52.022;5.534;2023-03-24T01:32:41;13.10;94.00
65046;DHT22;54657;52.022;5.534;2023-03-24T01:35:07;13.10;93.40
65046;DHT22;54657;52.022;5.534;2023-03-24T01:37:33;13.10;93.70
65046;DHT22;54657;52.022;5.534;2023-03-24T01:39:58;13.10;93.60
65046;DHT22;54657;52.022;5.534;2023-03-24T01:42:26;13.20;93.30
65046;DHT22;54657;52.022;5.534;2023-03-24T01:44:56;13.10;93.60
65046;DHT22;54657;52.022;5.534;2023-03-24T01:47:24;13.20;94.10
65046;DHT22;54657;52.022;5.534;2023-03-24T01:49:53;13.20;93.50
65046;DHT22;54657;52.022;5.534;2023-03-24T01:52:27;13.20;93.70
65046;DHT22;54657;52.022;5.534;2023-03-24T01:55:04;13.20;95.00
65046;DHT22;54657;52.022;5.534;2023-03-24T01:57:44;13.20;94.00
65046;DHT22;54657;52.022;5.534;2023-03-24T02:00:13;13.30;94.30
65046;DHT22;54657;52.022;5.534;2023-03-24T02:02:44;13.30;93.70
65046;DHT22;54657;52.022;5.534;2023-03-24T02:05:12;13.20;93.70
65046;DHT22;54657;52.022;5.534;2023-03-24T02:07:40;13.20;94.10
65046;DHT22;54657;52.022;5.534;2023-03-24T02:10:11;13.30;93.90
65046;DHT22;54657;52.022;5.534;2023-03-24T02:12:38;13.20;94.10
65046;DHT22;54657;52.022;5.534;2023-03-24T02:15:04;13.30;93.80
65046;DHT22;54657;52.022;5.534;2023-03-24T02:20:48;13.40;94.10
65046;DHT22;54657;52.022;5.534;2023-03-24T02:28:54;13.30;94.30
65046;DHT22;54657;52.022;5.534;2023-03-24T02:34:13;13.30;94.30
65046;DHT22;54657;52.022;5.534;2023-03-24T02:42:06;13.30;94.30
65046;DHT22;54657;52.022;5.534;2023-03-24T02:53:19;13.30;94.70
65046;DHT22;54657;52.022;5.534;2023-03-24T02:56:01;13.20;93.90
65046;DHT22;54657;52.022;5.534;2023-03-24T02:58:36;13.20;94.10
65046;DHT22;54657;52.022;5.534;2023-03-24T03:01:13;13.20;93.30
65046;DHT22;54657;52.022;5.534;2023-03-24T03:03:51;13.10;93.60
65046;DHT22;54657;52.022;5.534;2023-03-24T03:06:28;13.10;93.10
65046;DHT22;54657;52.022;5.534;2023-03-24T03:09:00;13.10;93.10
65046;DHT22;54657;52.022;5.534;2023-03-24T03:11:27;13.00;92.90
65046;DHT22;54657;52.022;5.534;2023-03-24T03:14:06;12.90;92.80
65046;DHT22;54657;52.022;5.534;2023-03-24T03:16:45;12.90;92.70
65046;DHT22;54657;52.022;5.534;2023-03-24T03:19:22;12.80;92.60
65046;DHT22;54657;52.022;5.534;2023-03-24T03:21:49;12.80;92.50
65046;DHT22;54657;52.022;5.534;2023-03-24T03:24:22;12.70;92.40
65046;DHT22;54657;52.022;5.534;2023-03-24T03:26:55;12.70;92.20
65046;DHT22;54657;52.022;5.534;2023-03-24T03:29:25;12.70;92.00
65046;DHT22;54657;52.022;5.534;2023-03-24T03:31:57;12.60;92.00
65046;DHT22;54657;52.022;5.534;2023-03-24T03:34:47;12.60;92.00
65046;DHT22;54657;52.022;5.534;2023-03-24T03:39:59;12.50;91.90
65046;DHT22;54657;52.022;5.534;2023-03-24T03:42:25;12.40;91.90
65046;DHT22;54657;52.022;5.534;2023-03-24T03:44:51;12.40;91.90
65046;DHT22;54657;52.022;5.534;2023-03-24T03:47:17;12.40;91.70
65046;DHT22;54657;52.022;5.534;2023-03-24T03:49:44;12.30;91.60
65046;DHT22;54657;52.022;5.534;2023-03-24T03:52:11;12.30;91.60
65046;DHT22;54657;52.022;5.534;2023-03-24T03:54:37;12.20;91.60
65046;DHT22;54657;52.022;5.534;2023-03-24T03:57:03;12.20;91.70
65046;DHT22;54657;52.022;5.534;2023-03-24T03:59:30;12.20;91.70
65046;DHT22;54657;52.022;5.534;2023-03-24T04:02:03;12.10;91.70
65046;DHT22;54657;52.022;5.534;2023-03-24T04:07:29;12.00;91.70
65046;DHT22;54657;52.022;5.534;2023-03-24T04:10:18;11.90;91.80
65046;DHT22;54657;52.022;5.534;2023-03-24T04:20:32;11.90;91.70
65046;DHT22;54657;52.022;5.534;2023-03-24T04:23:23;11.80;91.80
65046;DHT22;54657;52.022;5.534;2023-03-24T04:25:58;11.80;91.80
65046;DHT22;54657;52.022;5.534;2023-03-24T04:33:55;11.70;91.70
65046;DHT22;54657;52.022;5.534;2023-03-24T04:36:37;11.70;91.80
65046;DHT22;54657;52.022;5.534;2023-03-24T04:39:12;11.70;91.70
65046;DHT22;54657;52.022;5.534;2023-03-24T04:41:40;11.70;91.60
65046;DHT22;54657;52.022;5.534;2023-03-24T04:44:08;11.70;91.60
65046;DHT22;54657;52.022;5.534;2023-03-24T04:46:35;11.70;91.60
65046;DHT22;54657;52.022;5.534;2023-03-24T04:49:02;11.70;91.60
65046;DHT22;54657;52.022;5.534;2023-03-24T04:51:29;11.70;91.60
65046;DHT22;54657;52.022;5.534;2023-03-24T04:53:55;11.70;91.50
65046;DHT22;54657;52.022;5.534;2023-03-24T04:59:03;11.70;91.50
65046;DHT22;54657;52.022;5.534;2023-03-24T05:01:28;11.60;91.30
65046;DHT22;54657;52.022;5.534;2023-03-24T05:03:55;11.70;91.30
65046;DHT22;54657;52.022;5.534;2023-03-24T05:06:21;11.70;91.20
65046;DHT22;54657;52.022;5.534;2023-03-24T05:08:47;11.70;91.20
65046;DHT22;54657;52.022;5.534;2023-03-24T05:11:13;11.70;91.10
65046;DHT22;54657;52.022;5.534;2023-03-24T05:13:38;11.60;91.00
65046;DHT22;54657;52.022;5.534;2023-03-24T05:16:04;11.50;91.10
65046;DHT22;54657;52.022;5.534;2023-03-24T05:18:30;11.50;91.10
65046;DHT22;54657;52.022;5.534;2023-03-24T05:20:56;11.50;91.10
65046;DHT22;54657;52.022;5.534;2023-03-24T05:23:22;11.50;91.00
65046;DHT22;54657;52.022;5.534;2023-03-24T05:25:47;11.50;90.90
65046;DHT22;54657;52.022;5.534;2023-03-24T05:28:13;11.40;91.00
65046;DHT22;54657;52.022;5.534;2023-03-24T05:30:39;11.40;91.00
65046;DHT22;54657;52.022;5.534;2023-03-24T05:33:04;11.40;91.30
65046;DHT22;54657;52.022;5.534;2023-03-24T05:35:30;11.40;91.00
65046;DHT22;54657;52.022;5.534;2023-03-24T05:37:56;11.30;91.10
65046;DHT22;54657;52.022;5.534;2023-03-24T05:40:21;11.30;91.10
65046;DHT22;54657;52.022;5.534;2023-03-24T05:42:48;11.40;91.10
65046;DHT22;54657;52.022;5.534;2023-03-24T05:45:14;11.30;91.00
65046;DHT22;54657;52.022;5.534;2023-03-24T05:47:40;11.30;91.10
65046;DHT22;54657;52.022;5.534;2023-03-24T05:50:06;11.40;91.00
65046;DHT22;54657;52.022;5.534;2023-03-24T05:52:32;11.30;91.00
65046;DHT22;54657;52.022;5.534;2023-03-24T05:54:58;11.40;90.90
65046;DHT22;54657;52.022;5.534;2023-03-24T05:57:24;11.40;90.80
65046;DHT22;54657;52.022;5.534;2023-03-24T05:59:50;11.40;90.80
65046;DHT22;54657;52.022;5.534;2023-03-24T06:02:16;11.40;90.90
65046;DHT22;54657;52.022;5.534;2023-03-24T06:04:42;11.40;90.90
65046;DHT22;54657;52.022;5.534;2023-03-24T06:07:13;11.40;91.00
65046;DHT22;54657;52.022;5.534;2023-03-24T06:09:39;11.40;90.90
65046;DHT22;54657;52.022;5.534;2023-03-24T06:12:07;11.40;90.90
65046;DHT22;54657;52.022;5.534;2023-03-24T06:14:33;11.40;90.80
65046;DHT22;54657;52.022;5.534;2023-03-24T06:16:59;11.40;90.90
65046;DHT22;54657;52.022;5.534;2023-03-24T06:19:27;11.40;90.90
65046;DHT22;54657;52.022;5.534;2023-03-24T06:21:58;11.40;91.00
65046;DHT22;54657;52.022;5.534;2023-03-24T06:24:27;11.40;90.90
65046;DHT22;54657;52.022;5.534;2023-03-24T06:26:53;11.40;91.00
65046;DHT22;54657;52.022;5.534;2023-03-24T06:29:29;11.40;90.90
65046;DHT22;54657;52.022;5.534;2023-03-24T06:31:55;11.50;90.70
65046;DHT22;54657;52.022;5.534;2023-03-24T06:34:21;11.50;90.70
65046;DHT22;54657;52.022;5.534;2023-03-24T06:36:49;11.50;90.70
65046;DHT22;54657;52.022;5.534;2023-03-24T06:39:15;11.50;90.70
65046;DHT22;54657;52.022;5.534;2023-03-24T06:41:49;11.60;90.60
65046;DHT22;54657;52.022;5.534;2023-03-24T06:44:18;11.60;90.50
65046;DHT22;54657;52.022;5.534;2023-03-24T06:46:51;11.60;90.60
65046;DHT22;54657;52.022;5.534;2023-03-24T06:49:17;11.70;90.50
65046;DHT22;54657;52.022;5.534;2023-03-24T06:51:42;11.70;90.30
65046;DHT22;54657;52.022;5.534;2023-03-24T06:54:08;11.70;90.50
65046;DHT22;54657;52.022;5.534;2023-03-24T06:56:34;11.70;90.20
65046;DHT22;54657;52.022;5.534;2023-03-24T06:58:59;11.70;90.20
65046;DHT22;54657;52.022;5.534;2023-03-24T07:01:25;11.70;90.30
65046;DHT22;54657;52.022;5.534;2023-03-24T07:03:51;11.70;90.20
65046;DHT22;54657;52.022;5.534;2023-03-24T07:06:17;11.80;90.10
65046;DHT22;54657;52.022;5.534;2023-03-24T07:08:43;11.80;90.10
65046;DHT22;54657;52.022;5.534;2023-03-24T07:11:09;11.80;90.30
65046;DHT22;54657;52.022;5.534;2023-03-24T07:13:35;11.90;90.00
65046;DHT22;54657;52.022;5.534;2023-03-24T07:16:01;11.90;89.70
65046;DHT22;54657;52.022;5.534;2023-03-24T07:18:27;11.90;89.50
65046;DHT22;54657;52.022;5.534;2023-03-24T07:20:52;11.90;89.60
65046;DHT22;54657;52.022;5.534;2023-03-24T07:23:18;11.90;89.50
65046;DHT22;54657;52.022;5.534;2023-03-24T07:25:44;11.90;89.40
65046;DHT22;54657;52.022;5.534;2023-03-24T07:28:10;11.90;89.30
65046;DHT22;54657;52.022;5.534;2023-03-24T07:30:36;12.00;89.50
65046;DHT22;54657;52.022;5.534;2023-03-24T07:33:05;12.00;89.50
65046;DHT22;54657;52.022;5.534;2023-03-24T07:35:32;12.00;89.40
65046;DHT22;54657;52.022;5.534;2023-03-24T07:37:59;12.10;89.50
65046;DHT22;54657;52.022;5.534;2023-03-24T07:40:25;12.10;89.40
65046;DHT22;54657;52.022;5.534;2023-03-24T07:42:50;12.20;89.20
65046;DHT22;54657;52.022;5.534;2023-03-24T07:45:16;12.20;89.10
65046;DHT22;54657;52.022;5.534;2023-03-24T07:47:43;12.40;89.20
65046;DHT22;54657;52.022;5.534;2023-03-24T07:50:13;12.50;88.70
65046;DHT22;54657;52.022;5.534;2023-03-24T07:52:45;12.60;87.80
65046;DHT22;54657;52.022;5.534;2023-03-24T07:55:11;12.70;87.80
65046;DHT22;54657;52.022;5.534;2023-03-24T07:57:45;12.60;87.40
65046;DHT22;54657;52.022;5.534;2023-03-24T08:00:11;12.70;87.50
65046;DHT22;54657;52.022;5.534;2023-03-24T08:02:43;12.70;87.90
65046;DHT22;54657;52.022;5.534;2023-03-24T08:05:10;12.80;87.70
65046;DHT22;54657;52.022;5.534;2023-03-24T08:07:42;12.80;87.30
65046;DHT22;54657;52.022;5.534;2023-03-24T08:10:12;12.80;87.50
65046;DHT22;54657;52.022;5.534;2023-03-24T08:12:39;12.90;87.00
65046;DHT22;54657;52.022;5.534;2023-03-24T08:15:06;12.80;86.60
65046;DHT22;54657;52.022;5.534;2023-03-24T08:17:33;12.80;87.00
65046;DHT22;54657;52.022;5.534;2023-03-24T08:19:58;12.90;86.80
65046;DHT22;54657;52.022;5.534;2023-03-24T08:22:24;12.90;87.00
65046;DHT22;54657;52.022;5.534;2023-03-24T08:24:51;13.00;86.50
65046;DHT22;54657;52.022;5.534;2023-03-24T08:27:16;13.00;86.50
65046;DHT22;54657;52.022;5.534;2023-03-24T08:29:42;13.10;86.40
65046;DHT22;54657;52.022;5.534;2023-03-24T08:32:08;13.10;85.60
65046;DHT22;54657;52.022;5.534;2023-03-24T08:34:34;13.00;86.50
65046;DHT22;54657;52.022;5.534;2023-03-24T08:36:59;13.10;86.30
65046;DHT22;54657;52.022;5.534;2023-03-24T08:39:25;13.30;85.90
65046;DHT22;54657;52.022;5.534;2023-03-24T08:41:51;13.30;85.50
65046;DHT22;54657;52.022;5.534;2023-03-24T08:44:19;13.30;85.20
65046;DHT22;54657;52.022;5.534;2023-03-24T08:46:45;13.30;85.10
65046;DHT22;54657;52.022;5.534;2023-03-24T08:49:11;13.40;85.20
65046;DHT22;54657;52.022;5.534;2023-03-24T08:51:37;13.50;85.10
65046;DHT22;54657;52.022;5.534;2023-03-24T08:54:03;13.50;84.90
65046;DHT22;54657;52.022;5.534;2023-03-24T08:56:29;13.50;84.50
65046;DHT22;54657;52.022;5.534;2023-03-24T08:58:54;13.60;84.70
65046;DHT22;54657;52.022;5.534;2023-03-24T09:01:22;13.60;84.40
65046;DHT22;54657;52.022;5.534;2023-03-24T09:03:48;13.70;83.90
65046;DHT22;54657;52.022;5.534;2023-03-24T09:06:14;13.80;83.50
65046;DHT22;54657;52.022;5.534;2023-03-24T09:08:40;13.90;83.40
65046;DHT22;54657;52.022;5.534;2023-03-24T09:11:10;14.00;82.70
65046;DHT22;54657;52.022;5.534;2023-03-24T09:13:38;14.00;81.80
65046;DHT22;54657;52.022;5.534;2023-03-24T09:16:03;13.90;82.10
65046;DHT22;54657;52.022;5.534;2023-03-24T09:18:29;13.80;82.40
65046;DHT22;54657;52.022;5.534;2023-03-24T09:20:55;13.70;82.60
65046;DHT22;54657;52.022;5.534;2023-03-24T09:23:20;13.70;82.80
65046;DHT22;54657;52.022;5.534;2023-03-24T09:25:51;13.70;83.30
65046;DHT22;54657;52.022;5.534;2023-03-24T09:28:18;13.70;82.30
65046;DHT22;54657;52.022;5.534;2023-03-24T09:30:44;13.70;83.20
65046;DHT22;54657;52.022;5.534;2023-03-24T09:33:09;13.70;82.80
65046;DHT22;54657;52.022;5.534;2023-03-24T09:35:35;13.70;82.50
65046;DHT22;54657;52.022;5.534;2023-03-24T09:38:01;13.60;82.60
65046;DHT22;54657;52.022;5.534;2023-03-24T09:40:28;13.60;82.80
65046;DHT22;54657;52.022;5.534;2023-03-24T09:45:35;13.70;81.50
65046;DHT22;54657;52.022;5.534;2023-03-24T09:48:10;13.80;81.40
65046;DHT22;54657;52.022;5.534;2023-03-24T09:50:42;13.80;76.90
65046;DHT22;54657;52.022;5.534;2023-03-24T09:53:30;13.90;81.50
65046;DHT22;54657;52.022;5.534;2023-03-24T09:56:00;14.00;78.50
65046;DHT22;54657;52.022;5.534;2023-03-24T09:58:28;14.10;80.20
65046;DHT22;54657;52.022;5.534;2023-03-24T10:00:55;14.10;79.50
65046;DHT22;54657;52.022;5.534;2023-03-24T10:03:22;14.10;79.20
65046;DHT22;54657;52.022;5.534;2023-03-24T10:06:29;14.20;79.60
65046;DHT22;54657;52.022;5.534;2023-03-24T10:11:56;14.10;76.60
65046;DHT22;54657;52.022;5.534;2023-03-24T10:14:51;14.00;80.10
65046;DHT22;54657;52.022;5.534;2023-03-24T10:28:56;14.00;78.30
65046;DHT22;54657;52.022;5.534;2023-03-24T10:31:29;14.10;77.20
65046;DHT22;54657;52.022;5.534;2023-03-24T10:33:55;14.20;77.80
65046;DHT22;54657;52.022;5.534;2023-03-24T10:36:21;14.30;77.20
65046;DHT22;54657;52.022;5.534;2023-03-24T10:38:48;14.50;77.80
65046;DHT22;54657;52.022;5.534;2023-03-24T10:41:24;14.70;76.70
65046;DHT22;54657;52.022;5.534;2023-03-24T10:43:53;14.80;74.00
65046;DHT22;54657;52.022;5.534;2023-03-24T10:46:23;14.90;75.80
65046;DHT22;54657;52.022;5.534;2023-03-24T10:48:51;15.00;75.70
65046;DHT22;54657;52.022;5.534;2023-03-24T10:51:26;15.10;75.10
65046;DHT22;54657;52.022;5.534;2023-03-24T10:54:18;15.20;74.30
65046;DHT22;54657;52.022;5.534;2023-03-24T10:57:05;15.30;72.50
65046;DHT22;54657;52.022;5.534;2023-03-24T10:59:53;15.30;71.30
65046;DHT22;54657;52.022;5.534;2023-03-24T11:02:31;15.30;71.30
65046;DHT22;54657;52.022;5.534;2023-03-24T11:05:17;15.10;74.40
65046;DHT22;54657;52.022;5.534;2023-03-24T11:07:46;15.00;75.60
65046;DHT22;54657;52.022;5.534;2023-03-24T11:10:15;14.90;76.00
65046;DHT22;54657;52.022;5.534;2023-03-24T11:12:59;14.80;77.00
65046;DHT22;54657;52.022;5.534;2023-03-24T11:15:35;14.70;74.90
65046;DHT22;54657;52.022;5.534;2023-03-24T11:20:44;14.60;78.40
65046;DHT22;54657;52.022;5.534;2023-03-24T11:23:26;14.40;78.00
65046;DHT22;54657;52.022;5.534;2023-03-24T11:26:15;14.10;78.90
65046;DHT22;54657;52.022;5.534;2023-03-24T11:28:46;13.90;78.20
65046;DHT22;54657;52.022;5.534;2023-03-24T11:31:23;13.70;80.20
65046;DHT22;54657;52.022;5.534;2023-03-24T11:34:17;13.70;80.20
65046;DHT22;54657;52.022;5.534;2023-03-24T11:49:41;13.40;79.50
65046;DHT22;54657;52.022;5.534;2023-03-24T11:52:22;13.30;80.60
65046;DHT22;54657;52.022;5.534;2023-03-24T11:54:48;13.30;80.40
65046;DHT22;54657;52.022;5.534;2023-03-24T11:57:20;13.30;81.10
65046;DHT22;54657;52.022;5.534;2023-03-24T11:59:54;13.30;81.10
65046;DHT22;54657;52.022;5.534;2023-03-24T12:15:52;13.10;82.40
65046;DHT22;54657;52.022;5.534;2023-03-24T12:23:59;13.20;82.60
65046;DHT22;54657;52.022;5.534;2023-03-24T12:26:32;13.20;81.40
65046;DHT22;54657;52.022;5.534;2023-03-24T12:29:26;13.20;81.80
65046;DHT22;54657;52.022;5.534;2023-03-24T12:32:09;13.30;81.20
65046;DHT22;54657;52.022;5.534;2023-03-24T12:34:45;13.60;81.30
65046;DHT22;54657;52.022;5.534;2023-03-24T12:40:35;14.00;80.00
65046;DHT22;54657;52.022;5.534;2023-03-24T12:43:12;14.10;79.20
65046;DHT22;54657;52.022;5.534;2023-03-24T12:45:49;14.20;78.80
65046;DHT22;54657;52.022;5.534;2023-03-24T12:48:46;14.10;78.00
65046;DHT22;54657;52.022;5.534;2023-03-24T12:56:50;13.90;80.20
65046;DHT22;54657;52.022;5.534;2023-03-24T12:59:25;13.90;80.10
65046;DHT22;54657;52.022;5.534;2023-03-24T13:02:08;13.90;80.40
65046;DHT22;54657;52.022;5.534;2023-03-24T13:04:38;13.90;80.80
65046;DHT22;54657;52.022;5.534;2023-03-24T13:07:11;13.80;80.30
65046;DHT22;54657;52.022;5.534;2023-03-24T13:09:59;13.80;80.10
65046;DHT22;54657;52.022;5.534;2023-03-24T13:15:35;13.80;80.70
65046;DHT22;54657;52.022;5.534;2023-03-24T13:20:44;13.70;80.90
65046;DHT22;54657;52.022;5.534;2023-03-24T13:25:45;13.90;80.10
65046;DHT22;54657;52.022;5.534;2023-03-24T13:28:24;14.00;77.90
65046;DHT22;54657;52.022;5.534;2023-03-24T13:30:53;14.00;78.50
65046;DHT22;54657;52.022;5.534;2023-03-24T13:33:32;14.00;79.20
65046;DHT22;54657;52.022;5.534;2023-03-24T13:38:38;14.00;78.90
65046;DHT22;54657;52.022;5.534;2023-03-24T13:41:12;13.90;79.10
65046;DHT22;54657;52.022;5.534;2023-03-24T13:43:49;13.90;79.70
65046;DHT22;54657;52.022;5.534;2023-03-24T13:46:15;13.90;79.90
65046;DHT22;54657;52.022;5.534;2023-03-24T13:48:49;13.90;80.20
65046;DHT22;54657;52.022;5.534;2023-03-24T13:51:24;13.90;80.00
65046;DHT22;54657;52.022;5.534;2023-03-24T13:56:40;13.90;81.70
65046;DHT22;54657;52.022;5.534;2023-03-24T14:00:24;13.90;82.30
65046;DHT22;54657;52.022;5.534;2023-03-24T14:02:20;13.80;82.60
65046;DHT22;54657;52.022;5.534;2023-03-24T14:10:29;13.60;82.80
65046;DHT22;54657;52.022;5.534;2023-03-24T14:13:03;13.60;81.10
65046;DHT22;54657;52.022;5.534;2023-03-24T14:23:44;13.00;83.30
65046;DHT22;54657;52.022;5.534;2023-03-24T14:26:14;12.90;84.60
65046;DHT22;54657;52.022;5.534;2023-03-24T14:28:54;12.90;85.10
65046;DHT22;54657;52.022;5.534;2023-03-24T14:31:27;12.90;85.90
65046;DHT22;54657;52.022;5.534;2023-03-24T14:36:28;12.90;86.00
65046;DHT22;54657;52.022;5.534;2023-03-24T14:38:56;13.00;85.90
65046;DHT22;54657;52.022;5.534;2023-03-24T14:41:29;13.00;85.80
65046;DHT22;54657;52.022;5.534;2023-03-24T14:43:58;13.10;85.60
65046;DHT22;54657;52.022;5.534;2023-03-24T14:46:37;13.20;85.10
65046;DHT22;54657;52.022;5.534;2023-03-24T14:49:18;13.20;85.40
65046;DHT22;54657;52.022;5.534;2023-03-24T15:01:30;13.30;83.00
65046;DHT22;54657;52.022;5.534;2023-03-24T15:04:26;13.40;82.90
65046;DHT22;54657;52.022;5.534;2023-03-24T15:10:19;13.40;81.60
65046;DHT22;54657;52.022;5.534;2023-03-24T15:12:54;13.40;82.10
65046;DHT22;54657;52.022;5.534;2023-03-24T15:15:23;13.50;81.50
65046;DHT22;54657;52.022;5.534;2023-03-24T15:17:50;13.40;81.10
65046;DHT22;54657;52.022;5.534;2023-03-24T15:20:36;13.40;81.10
65046;DHT22;54657;52.022;5.534;2023-03-24T15:34:27;13.50;81.50
65046;DHT22;54657;52.022;5.534;2023-03-24T15:36:56;13.50;81.20
65046;DHT22;54657;52.022;5.534;2023-03-24T15:39:37;13.60;80.10
65046;DHT22;54657;52.022;5.534;2023-03-24T15:42:07;13.70;80.80
65046;DHT22;54657;52.022;5.534;2023-03-24T15:44:36;13.70;80.20
65046;DHT22;54657;52.022;5.534;2023-03-24T15:47:03;13.70;80.30
65046;DHT22;54657;52.022;5.534;2023-03-24T15:49:35;13.80;80.60
65046;DHT22;54657;52.022;5.534;2023-03-24T16:10:54;13.90;80.50
65046;DHT22;54657;52.022;5.534;2023-03-24T16:17:01;13.90;80.60
65046;DHT22;54657;52.022;5.534;2023-03-24T16:19:31;13.90;81.10
65046;DHT22;54657;52.022;5.534;2023-03-24T16:21:57;13.90;80.90
65046;DHT22;54657;52.022;5.534;2023-03-24T16:24:33;13.90;80.80
65046;DHT22;54657;52.022;5.534;2023-03-24T16:27:04;13.80;80.70
65046;DHT22;54657;52.022;5.534;2023-03-24T16:30:05;13.70;80.90
65046;DHT22;54657;52.022;5.534;2023-03-24T16:32:59;13.70;80.80
65046;DHT22;54657;52.022;5.534;2023-03-24T16:35:25;13.60;81.50
65046;DHT22;54657;52.022;5.534;2023-03-24T16:47:13;13.50;81.90
65046;DHT22;54657;52.022;5.534;2023-03-24T16:49:44;13.50;81.70
65046;DHT22;54657;52.022;5.534;2023-03-24T16:52:11;13.50;81.50
65046;DHT22;54657;52.022;5.534;2023-03-24T16:54:43;13.50;81.70
65046;DHT22;54657;52.022;5.534;2023-03-24T16:57:11;13.60;81.80
65046;DHT22;54657;52.022;5.534;2023-03-24T16:59:42;13.60;82.10
65046;DHT22;54657;52.022;5.534;2023-03-24T17:02:19;13.60;82.20
65046;DHT22;54657;52.022;5.534;2023-03-24T17:04:45;13.60;82.40
65046;DHT22;54657;52.022;5.534;2023-03-24T17:07:18;13.70;82.60
65046;DHT22;54657;52.022;5.534;2023-03-24T17:10:09;13.70;82.70
65046;DHT22;54657;52.022;5.534;2023-03-24T17:12:55;13.80;83.10
65046;DHT22;54657;52.022;5.534;2023-03-24T17:15:34;13.80;82.90
65046;DHT22;54657;52.022;5.534;2023-03-24T17:18:05;13.80;83.00
65046;DHT22;54657;52.022;5.534;2023-03-24T17:20:34;13.80;82.90
65046;DHT22;54657;52.022;5.534;2023-03-24T17:23:24;13.80;83.00
65046;DHT22;54657;52.022;5.534;2023-03-24T17:25:50;13.90;83.10
65046;DHT22;54657;52.022;5.534;2023-03-24T17:28:53;13.80;82.90
65046;DHT22;54657;52.022;5.534;2023-03-24T17:31:22;13.80;83.20
65046;DHT22;54657;52.022;5.534;2023-03-24T17:33:59;13.70;83.40
65046;DHT22;54657;52.022;5.534;2023-03-24T17:37:03;13.70;83.60
65046;DHT22;54657;52.022;5.534;2023-03-24T17:39:58;13.70;83.50
65046;DHT22;54657;52.022;5.534;2023-03-24T17:42:28;13.70;83.60
65046;DHT22;54657;52.022;5.534;2023-03-24T17:44:53;13.70;83.60
65046;DHT22;54657;52.022;5.534;2023-03-24T17:47:36;13.60;83.50
65046;DHT22;54657;52.022;5.534;2023-03-24T17:53:40;13.60;83.40
65046;DHT22;54657;52.022;5.534;2023-03-24T17:56:32;13.60;84.20
65046;DHT22;54657;52.022;5.534;2023-03-24T17:59:14;13.50;83.40
65046;DHT22;54657;52.022;5.534;2023-03-24T18:01:52;13.50;83.60
65046;DHT22;54657;52.022;5.534;2023-03-24T18:04:17;13.40;83.40
65046;DHT22;54657;52.022;5.534;2023-03-24T18:07:06;13.40;83.60
65046;DHT22;54657;52.022;5.534;2023-03-24T18:09:36;13.40;82.80
65046;DHT22;54657;52.022;5.534;2023-03-24T18:15:25;13.30;83.10
65046;DHT22;54657;52.022;5.534;2023-03-24T18:17:50;13.30;83.30
65046;DHT22;54657;52.022;5.534;2023-03-24T18:23:49;13.30;82.60
65046;DHT22;54657;52.022;5.534;2023-03-24T18:26:16;13.30;83.00
65046;DHT22;54657;52.022;5.534;2023-03-24T18:28:47;13.20;83.20
65046;DHT22;54657;52.022;5.534;2023-03-24T18:31:25;13.20;83.30
65046;DHT22;54657;52.022;5.534;2023-03-24T18:37:02;13.10;83.00
65046;DHT22;54657;52.022;5.534;2023-03-24T18:39:28;13.10;83.10
65046;DHT22;54657;52.022;5.534;2023-03-24T18:41:54;13.10;83.00
65046;DHT22;54657;52.022;5.534;2023-03-24T18:44:20;13.10;82.90
65046;DHT22;54657;52.022;5.534;2023-03-24T18:46:55;13.00;82.60
65046;DHT22;54657;52.022;5.534;2023-03-24T18:49:20;12.90;82.40
65046;DHT22;54657;52.022;5.534;2023-03-24T18:51:46;12.90;82.40
65046;DHT22;54657;52.022;5.534;2023-03-24T18:54:12;12.90;82.40
65046;DHT22;54657;52.022;5.534;2023-03-24T18:56:38;12.80;82.10
65046;DHT22;54657;52.022;5.534;2023-03-24T18:59:03;12.80;81.90
65046;DHT22;54657;52.022;5.534;2023-03-24T19:01:29;12.80;81.50
65046;DHT22;54657;52.022;5.534;2023-03-24T19:03:57;12.80;81.50
65046;DHT22;54657;52.022;5.534;2023-03-24T19:06:24;12.80;81.40
65046;DHT22;54657;52.022;5.534;2023-03-24T19:09:53;12.70;80.70
65046;DHT22;54657;52.022;5.534;2023-03-24T19:16:29;12.70;78.60
65046;DHT22;54657;52.022;5.534;2023-03-24T19:19:07;12.60;77.10
65046;DHT22;54657;52.022;5.534;2023-03-24T19:31:15;12.50;78.40
65046;DHT22;54657;52.022;5.534;2023-03-24T19:37:55;12.40;77.30
65046;DHT22;54657;52.022;5.534;2023-03-24T19:40:35;12.30;79.90